sensor_id;sensor_type;location;lat;lon;timestamp;P1;durP1;ratioP1;P2;durP2;ratioP2
18190;SDS011;47004;51.366;12.348;2023-04-28T00:01:11;5.00;;;3.03;;
18190;SDS011;47004;51.366;12.348;2023-04-28T00:03:13;6.97;;;2.87;;
18190;SDS011;47004;51.366;12.348;2023-04-28T00:05:15;7.40;;;2.90;;
18190;SDS011;47004;51.366;12.348;2023-04-28T00:07:17;7.70;;;3.23;;
18190;SDS011;47004;51.366;12.348;2023-04-28T00:09:19;7.67;;;3.40;;
18190;SDS011;47004;51.366;12.348;2023-04-28T00:11:22;5.33;;;3.17;;
18190;SDS011;47004;51.366;12.348;2023-04-28T00:13:25;5.23;;;3.30;;
18190;SDS011;47004;51.366;12.348;2023-04-28T00:15:27;5.23;;;2.87;;
18190;SDS011;47004;51.366;12.348;2023-04-28T00:17:29;7.43;;;2.90;;
18190;SDS011;47004;51.366;12.348;2023-04-28T00:19:31;5.60;;;3.17;;
18190;SDS011;47004;51.366;12.348;2023-04-28T00:21:33;5.10;;;3.03;;
18190;SDS011;47004;51.366;12.348;2023-04-28T00:23:35;6.17;;;3.27;;
18190;SDS011;47004;51.366;12.348;2023-04-28T00:25:37;4.73;;;3.13;;
18190;SDS011;47004;51.366;12.348;2023-04-28T00:27:40;5.63;;;3.00;;
18190;SDS011;47004;51.366;12.348;2023-04-28T00:29:42;4.87;;;3.03;;
18190;SDS011;47004;51.366;12.348;2023-04-28T00:31:44;5.80;;;3.40;;
18190;SDS011;47004;51.366;12.348;2023-04-28T00:33:46;6.10;;;3.53;;
18190;SDS011;47004;51.366;12.348;2023-04-28T00:35:48;9.03;;;3.50;;
18190;SDS011;47004;51.366;12.348;2023-04-28T00:37:58;5.90;;;3.17;;
18190;SDS011;47004;51.366;12.348;2023-04-28T00:40:00;6.30;;;3.07;;
18190;SDS011;47004;51.366;12.348;2023-04-28T00:42:02;5.50;;;3.20;;
18190;SDS011;47004;51.366;12.348;2023-04-28T00:44:06;5.97;;;3.00;;
18190;SDS011;47004;51.366;12.348;2023-04-28T00:46:08;6.67;;;3.50;;
18190;SDS011;47004;51.366;12.348;2023-04-28T00:48:10;7.73;;;3.43;;
18190;SDS011;47004;51.366;12.348;2023-04-28T00:50:13;5.63;;;2.80;;
18190;SDS011;47004;51.366;12.348;2023-04-28T00:52:17;6.20;;;3.87;;
18190;SDS011;47004;51.366;12.348;2023-04-28T00:54:19;8.30;;;3.60;;
18190;SDS011;47004;51.366;12.348;2023-04-28T00:56:21;6.67;;;3.43;;
18190;SDS011;47004;51.366;12.348;2023-04-28T00:58:23;9.57;;;3.70;;
18190;SDS011;47004;51.366;12.348;2023-04-28T01:00:27;6.23;;;3.20;;
18190;SDS011;47004;51.366;12.348;2023-04-28T01:02:29;6.37;;;3.47;;
18190;SDS011;47004;51.366;12.348;2023-04-28T01:04:32;7.90;;;3.40;;
18190;SDS011;47004;51.366;12.348;2023-04-28T01:06:35;6.97;;;3.53;;
18190;SDS011;47004;51.366;12.348;2023-04-28T01:08:38;7.33;;;3.33;;
18190;SDS011;47004;51.366;12.348;2023-04-28T01:10:42;8.83;;;3.40;;
18190;SDS011;47004;51.366;12.348;2023-04-28T01:12:45;7.43;;;3.50;;
18190;SDS011;47004;51.366;12.348;2023-04-28T01:14:47;4.87;;;2.93;;
18190;SDS011;47004;51.366;12.348;2023-04-28T01:16:50;6.50;;;3.30;;
18190;SDS011;47004;51.366;12.348;2023-04-28T01:18:53;7.67;;;3.27;;
18190;SDS011;47004;51.366;12.348;2023-04-28T01:20:56;5.57;;;3.40;;
18190;SDS011;47004;51.366;12.348;2023-04-28T01:22:58;6.43;;;3.00;;
18190;SDS011;47004;51.366;12.348;2023-04-28T01:25:01;6.17;;;3.23;;
18190;SDS011;47004;51.366;12.348;2023-04-28T01:27:03;9.57;;;3.67;;
18190;SDS011;47004;51.366;12.348;2023-04-28T01:29:05;5.83;;;3.50;;
18190;SDS011;47004;51.366;12.348;2023-04-28T01:31:07;8.03;;;3.40;;
18190;SDS011;47004;51.366;12.348;2023-04-28T01:33:09;5.67;;;3.60;;
18190;SDS011;47004;51.366;12.348;2023-04-28T01:35:11;7.43;;;3.33;;
18190;SDS011;47004;51.366;12.348;2023-04-28T01:37:13;5.93;;;3.27;;
18190;SDS011;47004;51.366;12.348;2023-04-28T01:39:15;7.43;;;3.87;;
18190;SDS011;47004;51.366;12.348;2023-04-28T01:41:19;6.60;;;3.77;;
18190;SDS011;47004;51.366;12.348;2023-04-28T01:43:21;6.83;;;3.57;;
18190;SDS011;47004;51.366;12.348;2023-04-28T01:45:23;8.13;;;4.07;;
18190;SDS011;47004;51.366;12.348;2023-04-28T01:47:25;6.70;;;3.80;;
18190;SDS011;47004;51.366;12.348;2023-04-28T01:49:27;6.90;;;3.97;;
18190;SDS011;47004;51.366;12.348;2023-04-28T01:51:29;6.73;;;3.83;;
18190;SDS011;47004;51.366;12.348;2023-04-28T01:53:31;7.53;;;4.17;;
18190;SDS011;47004;51.366;12.348;2023-04-28T01:55:33;7.73;;;4.17;;
18190;SDS011;47004;51.366;12.348;2023-04-28T01:57:39;10.07;;;4.20;;
18190;SDS011;47004;51.366;12.348;2023-04-28T01:59:41;7.83;;;3.80;;
18190;SDS011;47004;51.366;12.348;2023-04-28T02:01:43;6.63;;;3.63;;
18190;SDS011;47004;51.366;12.348;2023-04-28T02:03:45;7.70;;;4.00;;
18190;SDS011;47004;51.366;12.348;2023-04-28T02:05:48;6.13;;;3.60;;
18190;SDS011;47004;51.366;12.348;2023-04-28T02:07:50;9.37;;;4.07;;
18190;SDS011;47004;51.366;12.348;2023-04-28T02:09:52;9.13;;;4.47;;
18190;SDS011;47004;51.366;12.348;2023-04-28T02:11:54;7.97;;;4.10;;
18190;SDS011;47004;51.366;12.348;2023-04-28T02:13:57;9.07;;;4.10;;
18190;SDS011;47004;51.366;12.348;2023-04-28T02:15:59;8.37;;;4.47;;
18190;SDS011;47004;51.366;12.348;2023-04-28T02:18:01;8.23;;;4.40;;
18190;SDS011;47004;51.366;12.348;2023-04-28T02:20:04;9.17;;;4.80;;
18190;SDS011;47004;51.366;12.348;2023-04-28T02:22:07;10.20;;;4.40;;
18190;SDS011;47004;51.366;12.348;2023-04-28T02:24:08;6.60;;;4.00;;
18190;SDS011;47004;51.366;12.348;2023-04-28T02:26:10;9.47;;;4.20;;
18190;SDS011;47004;51.366;12.348;2023-04-28T02:28:12;7.60;;;4.33;;
18190;SDS011;47004;51.366;12.348;2023-04-28T02:30:16;9.37;;;4.23;;
18190;SDS011;47004;51.366;12.348;2023-04-28T02:32:18;8.23;;;4.60;;
18190;SDS011;47004;51.366;12.348;2023-04-28T02:34:20;6.90;;;4.37;;
18190;SDS011;47004;51.366;12.348;2023-04-28T02:36:22;6.40;;;4.23;;
18190;SDS011;47004;51.366;12.348;2023-04-28T02:38:24;11.57;;;4.93;;
18190;SDS011;47004;51.366;12.348;2023-04-28T02:40:25;8.33;;;4.50;;
18190;SDS011;47004;51.366;12.348;2023-04-28T02:42:27;8.33;;;4.53;;
18190;SDS011;47004;51.366;12.348;2023-04-28T02:44:30;8.67;;;5.23;;
18190;SDS011;47004;51.366;12.348;2023-04-28T02:46:33;9.43;;;4.97;;
18190;SDS011;47004;51.366;12.348;2023-04-28T02:48:35;8.73;;;5.10;;
18190;SDS011;47004;51.366;12.348;2023-04-28T02:50:37;8.07;;;4.60;;
18190;SDS011;47004;51.366;12.348;2023-04-28T02:52:39;7.40;;;4.53;;
18190;SDS011;47004;51.366;12.348;2023-04-28T02:54:40;8.23;;;4.63;;
18190;SDS011;47004;51.366;12.348;2023-04-28T02:56:43;9.93;;;4.80;;
18190;SDS011;47004;51.366;12.348;2023-04-28T02:58:44;8.53;;;4.83;;
18190;SDS011;47004;51.366;12.348;2023-04-28T03:00:47;10.20;;;5.27;;
18190;SDS011;47004;51.366;12.348;2023-04-28T03:02:51;9.30;;;5.00;;
18190;SDS011;47004;51.366;12.348;2023-04-28T03:04:53;10.63;;;5.73;;
18190;SDS011;47004;51.366;12.348;2023-04-28T03:06:55;9.87;;;4.97;;
18190;SDS011;47004;51.366;12.348;2023-04-28T03:08:57;8.13;;;4.57;;
18190;SDS011;47004;51.366;12.348;2023-04-28T03:10:59;8.30;;;5.20;;
18190;SDS011;47004;51.366;12.348;2023-04-28T03:13:01;9.17;;;4.70;;
18190;SDS011;47004;51.366;12.348;2023-04-28T03:15:03;8.57;;;4.90;;
18190;SDS011;47004;51.366;12.348;2023-04-28T03:17:07;8.93;;;5.30;;
18190;SDS011;47004;51.366;12.348;2023-04-28T03:19:10;9.83;;;5.27;;
18190;SDS011;47004;51.366;12.348;2023-04-28T03:21:12;9.07;;;5.20;;
18190;SDS011;47004;51.366;12.348;2023-04-28T03:23:14;11.27;;;5.67;;
18190;SDS011;47004;51.366;12.348;2023-04-28T03:25:16;10.43;;;5.47;;
18190;SDS011;47004;51.366;12.348;2023-04-28T03:27:18;10.83;;;5.23;;
18190;SDS011;47004;51.366;12.348;2023-04-28T03:29:20;7.83;;;5.13;;
18190;SDS011;47004;51.366;12.348;2023-04-28T03:31:23;8.67;;;5.00;;
18190;SDS011;47004;51.366;12.348;2023-04-28T03:33:25;9.30;;;5.10;;
18190;SDS011;47004;51.366;12.348;2023-04-28T03:35:28;9.30;;;5.20;;
18190;SDS011;47004;51.366;12.348;2023-04-28T03:37:30;11.10;;;5.30;;
18190;SDS011;47004;51.366;12.348;2023-04-28T03:39:32;10.07;;;5.43;;
18190;SDS011;47004;51.366;12.348;2023-04-28T03:41:34;8.20;;;5.20;;
18190;SDS011;47004;51.366;12.348;2023-04-28T03:43:36;12.30;;;6.67;;
18190;SDS011;47004;51.366;12.348;2023-04-28T03:45:39;13.03;;;6.60;;
18190;SDS011;47004;51.366;12.348;2023-04-28T03:47:41;11.00;;;5.97;;
18190;SDS011;47004;51.366;12.348;2023-04-28T03:49:43;11.67;;;6.07;;
18190;SDS011;47004;51.366;12.348;2023-04-28T03:51:46;11.43;;;5.83;;
18190;SDS011;47004;51.366;12.348;2023-04-28T03:53:51;11.20;;;6.13;;
18190;SDS011;47004;51.366;12.348;2023-04-28T03:55:53;10.40;;;6.00;;
18190;SDS011;47004;51.366;12.348;2023-04-28T03:57:55;9.93;;;5.53;;
18190;SDS011;47004;51.366;12.348;2023-04-28T03:59:57;13.43;;;6.37;;
18190;SDS011;47004;51.366;12.348;2023-04-28T04:01:59;10.80;;;6.40;;
18190;SDS011;47004;51.366;12.348;2023-04-28T04:04:04;12.23;;;6.50;;
18190;SDS011;47004;51.366;12.348;2023-04-28T04:06:06;11.47;;;6.00;;
18190;SDS011;47004;51.366;12.348;2023-04-28T04:08:10;10.00;;;5.87;;
18190;SDS011;47004;51.366;12.348;2023-04-28T04:10:12;7.57;;;5.70;;
18190;SDS011;47004;51.366;12.348;2023-04-28T04:12:14;11.07;;;6.17;;
18190;SDS011;47004;51.366;12.348;2023-04-28T04:14:16;10.23;;;6.60;;
18190;SDS011;47004;51.366;12.348;2023-04-28T04:16:18;9.93;;;6.30;;
18190;SDS011;47004;51.366;12.348;2023-04-28T04:18:21;9.23;;;6.03;;
18190;SDS011;47004;51.366;12.348;2023-04-28T04:20:23;10.80;;;5.60;;
18190;SDS011;47004;51.366;12.348;2023-04-28T04:22:25;9.90;;;6.17;;
18190;SDS011;47004;51.366;12.348;2023-04-28T04:24:29;11.50;;;5.83;;
18190;SDS011;47004;51.366;12.348;2023-04-28T04:26:30;10.77;;;6.00;;
18190;SDS011;47004;51.366;12.348;2023-04-28T04:28:32;10.67;;;6.23;;
18190;SDS011;47004;51.366;12.348;2023-04-28T04:30:34;10.50;;;5.77;;
18190;SDS011;47004;51.366;12.348;2023-04-28T04:32:36;9.00;;;5.43;;
18190;SDS011;47004;51.366;12.348;2023-04-28T04:34:38;13.10;;;6.47;;
18190;SDS011;47004;51.366;12.348;2023-04-28T04:36:40;11.73;;;5.50;;
18190;SDS011;47004;51.366;12.348;2023-04-28T04:38:42;9.37;;;5.27;;
18190;SDS011;47004;51.366;12.348;2023-04-28T04:40:46;10.87;;;5.67;;
18190;SDS011;47004;51.366;12.348;2023-04-28T04:42:48;11.87;;;5.67;;
18190;SDS011;47004;51.366;12.348;2023-04-28T04:44:50;9.00;;;5.70;;
18190;SDS011;47004;51.366;12.348;2023-04-28T04:46:52;13.47;;;6.23;;
18190;SDS011;47004;51.366;12.348;2023-04-28T04:48:53;11.23;;;5.77;;
18190;SDS011;47004;51.366;12.348;2023-04-28T04:50:55;9.73;;;5.60;;
18190;SDS011;47004;51.366;12.348;2023-04-28T04:52:57;15.50;;;6.43;;
18190;SDS011;47004;51.366;12.348;2023-04-28T04:54:59;12.67;;;7.00;;
18190;SDS011;47004;51.366;12.348;2023-04-28T04:57:03;13.43;;;6.83;;
18190;SDS011;47004;51.366;12.348;2023-04-28T04:59:05;10.83;;;6.00;;
18190;SDS011;47004;51.366;12.348;2023-04-28T05:01:07;10.07;;;6.07;;
18190;SDS011;47004;51.366;12.348;2023-04-28T05:03:09;11.47;;;6.23;;
18190;SDS011;47004;51.366;12.348;2023-04-28T05:05:12;10.10;;;5.73;;
18190;SDS011;47004;51.366;12.348;2023-04-28T05:07:14;11.67;;;6.00;;
18190;SDS011;47004;51.366;12.348;2023-04-28T05:09:16;10.37;;;5.43;;
18190;SDS011;47004;51.366;12.348;2023-04-28T05:11:18;13.53;;;7.13;;
18190;SDS011;47004;51.366;12.348;2023-04-28T05:13:21;10.63;;;6.77;;
18190;SDS011;47004;51.366;12.348;2023-04-28T05:15:23;10.53;;;5.83;;
18190;SDS011;47004;51.366;12.348;2023-04-28T05:17:25;12.50;;;6.43;;
18190;SDS011;47004;51.366;12.348;2023-04-28T05:19:27;12.73;;;6.30;;
18190;SDS011;47004;51.366;12.348;2023-04-28T05:21:29;9.77;;;6.07;;
18190;SDS011;47004;51.366;12.348;2023-04-28T05:23:31;11.50;;;6.50;;
18190;SDS011;47004;51.366;12.348;2023-04-28T05:25:33;10.17;;;5.63;;
18190;SDS011;47004;51.366;12.348;2023-04-28T05:27:35;9.90;;;5.87;;
18190;SDS011;47004;51.366;12.348;2023-04-28T05:29:41;10.27;;;5.70;;
18190;SDS011;47004;51.366;12.348;2023-04-28T05:31:43;9.73;;;5.47;;
18190;SDS011;47004;51.366;12.348;2023-04-28T05:33:45;10.57;;;5.63;;
18190;SDS011;47004;51.366;12.348;2023-04-28T05:35:47;11.17;;;6.53;;
18190;SDS011;47004;51.366;12.348;2023-04-28T05:37:49;9.73;;;6.07;;
18190;SDS011;47004;51.366;12.348;2023-04-28T05:39:51;11.33;;;5.83;;
18190;SDS011;47004;51.366;12.348;2023-04-28T05:41:53;9.23;;;5.80;;
18190;SDS011;47004;51.366;12.348;2023-04-28T05:43:57;11.03;;;6.00;;
18190;SDS011;47004;51.366;12.348;2023-04-28T05:46:01;12.70;;;6.87;;
18190;SDS011;47004;51.366;12.348;2023-04-28T05:48:03;10.83;;;5.70;;
18190;SDS011;47004;51.366;12.348;2023-04-28T05:50:06;11.60;;;6.03;;
18190;SDS011;47004;51.366;12.348;2023-04-28T05:52:09;8.87;;;5.97;;
18190;SDS011;47004;51.366;12.348;2023-04-28T05:54:11;10.83;;;6.33;;
18190;SDS011;47004;51.366;12.348;2023-04-28T05:56:13;11.40;;;6.47;;
18190;SDS011;47004;51.366;12.348;2023-04-28T05:58:15;11.13;;;5.60;;
18190;SDS011;47004;51.366;12.348;2023-04-28T06:00:17;10.23;;;5.80;;
18190;SDS011;47004;51.366;12.348;2023-04-28T06:02:22;9.20;;;5.67;;
18190;SDS011;47004;51.366;12.348;2023-04-28T06:04:24;9.47;;;6.27;;
18190;SDS011;47004;51.366;12.348;2023-04-28T06:06:26;8.67;;;6.03;;
18190;SDS011;47004;51.366;12.348;2023-04-28T06:08:28;11.40;;;5.83;;
18190;SDS011;47004;51.366;12.348;2023-04-28T06:10:30;10.10;;;5.67;;
18190;SDS011;47004;51.366;12.348;2023-04-28T06:12:32;9.73;;;5.10;;
18190;SDS011;47004;51.366;12.348;2023-04-28T06:14:34;11.90;;;6.40;;
18190;SDS011;47004;51.366;12.348;2023-04-28T06:16:36;10.80;;;5.80;;
18190;SDS011;47004;51.366;12.348;2023-04-28T06:18:40;11.13;;;5.50;;
18190;SDS011;47004;51.366;12.348;2023-04-28T06:20:42;13.07;;;5.80;;
18190;SDS011;47004;51.366;12.348;2023-04-28T06:22:44;11.43;;;6.03;;
18190;SDS011;47004;51.366;12.348;2023-04-28T06:24:46;11.70;;;5.40;;
18190;SDS011;47004;51.366;12.348;2023-04-28T06:26:48;8.60;;;4.93;;
18190;SDS011;47004;51.366;12.348;2023-04-28T06:28:50;12.83;;;5.80;;
18190;SDS011;47004;51.366;12.348;2023-04-28T06:30:52;7.90;;;5.30;;
18190;SDS011;47004;51.366;12.348;2023-04-28T06:32:53;11.60;;;5.87;;
18190;SDS011;47004;51.366;12.348;2023-04-28T06:34:58;12.47;;;6.47;;
18190;SDS011;47004;51.366;12.348;2023-04-28T06:37:00;16.20;;;5.60;;
18190;SDS011;47004;51.366;12.348;2023-04-28T06:39:02;12.00;;;5.20;;
18190;SDS011;47004;51.366;12.348;2023-04-28T06:41:04;11.50;;;5.50;;
18190;SDS011;47004;51.366;12.348;2023-04-28T06:43:06;8.23;;;5.10;;
18190;SDS011;47004;51.366;12.348;2023-04-28T06:45:08;9.17;;;5.10;;
18190;SDS011;47004;51.366;12.348;2023-04-28T06:47:10;9.47;;;5.17;;
18190;SDS011;47004;51.366;12.348;2023-04-28T06:49:12;10.53;;;5.03;;
18190;SDS011;47004;51.366;12.348;2023-04-28T06:51:16;8.77;;;4.83;;
18190;SDS011;47004;51.366;12.348;2023-04-28T06:53:18;8.80;;;5.43;;
18190;SDS011;47004;51.366;12.348;2023-04-28T06:55:20;11.03;;;5.67;;
18190;SDS011;47004;51.366;12.348;2023-04-28T06:57:22;11.50;;;5.70;;
18190;SDS011;47004;51.366;12.348;2023-04-28T06:59:24;11.67;;;5.17;;
18190;SDS011;47004;51.366;12.348;2023-04-28T07:01:26;9.80;;;4.97;;
18190;SDS011;47004;51.366;12.348;2023-04-28T07:03:28;11.23;;;5.67;;
18190;SDS011;47004;51.366;12.348;2023-04-28T07:05:31;9.33;;;4.70;;
18190;SDS011;47004;51.366;12.348;2023-04-28T07:07:35;8.80;;;5.07;;
18190;SDS011;47004;51.366;12.348;2023-04-28T07:09:38;9.50;;;5.43;;
18190;SDS011;47004;51.366;12.348;2023-04-28T07:11:40;9.23;;;5.13;;
18190;SDS011;47004;51.366;12.348;2023-04-28T07:13:42;12.13;;;6.03;;
18190;SDS011;47004;51.366;12.348;2023-04-28T07:15:45;11.57;;;5.83;;
18190;SDS011;47004;51.366;12.348;2023-04-28T07:17:47;9.67;;;5.40;;
18190;SDS011;47004;51.366;12.348;2023-04-28T07:19:49;9.77;;;5.30;;
18190;SDS011;47004;51.366;12.348;2023-04-28T07:21:51;6.33;;;4.50;;
18190;SDS011;47004;51.366;12.348;2023-04-28T07:23:54;12.80;;;5.40;;
18190;SDS011;47004;51.366;12.348;2023-04-28T07:25:56;10.13;;;5.50;;
18190;SDS011;47004;51.366;12.348;2023-04-28T07:27:58;7.83;;;4.70;;
18190;SDS011;47004;51.366;12.348;2023-04-28T07:30:03;12.90;;;5.73;;
18190;SDS011;47004;51.366;12.348;2023-04-28T07:32:08;10.77;;;4.93;;
18190;SDS011;47004;51.366;12.348;2023-04-28T07:34:10;6.57;;;4.10;;
18190;SDS011;47004;51.366;12.348;2023-04-28T07:36:12;11.03;;;4.63;;
18190;SDS011;47004;51.366;12.348;2023-04-28T07:38:14;8.13;;;4.20;;
18190;SDS011;47004;51.366;12.348;2023-04-28T07:40:19;9.10;;;4.77;;
18190;SDS011;47004;51.366;12.348;2023-04-28T07:42:21;7.30;;;4.60;;
18190;SDS011;47004;51.366;12.348;2023-04-28T07:44:23;8.93;;;5.07;;
18190;SDS011;47004;51.366;12.348;2023-04-28T07:46:25;9.67;;;4.73;;
18190;SDS011;47004;51.366;12.348;2023-04-28T07:48:27;8.77;;;5.27;;
18190;SDS011;47004;51.366;12.348;2023-04-28T07:50:29;8.30;;;5.17;;
18190;SDS011;47004;51.366;12.348;2023-04-28T07:52:31;10.40;;;4.37;;
18190;SDS011;47004;51.366;12.348;2023-04-28T07:54:35;10.33;;;5.33;;
18190;SDS011;47004;51.366;12.348;2023-04-28T07:56:38;7.87;;;4.10;;
18190;SDS011;47004;51.366;12.348;2023-04-28T07:58:40;9.30;;;4.60;;
18190;SDS011;47004;51.366;12.348;2023-04-28T08:00:42;8.83;;;4.43;;
18190;SDS011;47004;51.366;12.348;2023-04-28T08:02:44;8.33;;;4.00;;
18190;SDS011;47004;51.366;12.348;2023-04-28T08:04:46;9.63;;;4.33;;
18190;SDS011;47004;51.366;12.348;2023-04-28T08:06:48;7.83;;;4.10;;
18190;SDS011;47004;51.366;12.348;2023-04-28T08:08:50;8.50;;;4.37;;
18190;SDS011;47004;51.366;12.348;2023-04-28T08:10:52;7.63;;;4.17;;
18190;SDS011;47004;51.366;12.348;2023-04-28T08:12:55;8.13;;;4.07;;
18190;SDS011;47004;51.366;12.348;2023-04-28T08:14:57;8.63;;;4.57;;
18190;SDS011;47004;51.366;12.348;2023-04-28T08:16:59;7.27;;;4.00;;
18190;SDS011;47004;51.366;12.348;2023-04-28T08:19:01;8.20;;;4.10;;
18190;SDS011;47004;51.366;12.348;2023-04-28T08:21:03;9.70;;;5.43;;
18190;SDS011;47004;51.366;12.348;2023-04-28T08:23:05;8.97;;;4.43;;
18190;SDS011;47004;51.366;12.348;2023-04-28T08:25:08;11.33;;;4.47;;
18190;SDS011;47004;51.366;12.348;2023-04-28T08:27:10;9.40;;;4.33;;
18190;SDS011;47004;51.366;12.348;2023-04-28T08:29:13;9.20;;;4.43;;
18190;SDS011;47004;51.366;12.348;2023-04-28T08:31:15;6.73;;;4.03;;
18190;SDS011;47004;51.366;12.348;2023-04-28T08:33:17;8.20;;;4.03;;
18190;SDS011;47004;51.366;12.348;2023-04-28T08:35:19;11.77;;;4.47;;
18190;SDS011;47004;51.366;12.348;2023-04-28T08:37:21;11.43;;;4.50;;
18190;SDS011;47004;51.366;12.348;2023-04-28T08:39:24;7.57;;;3.97;;
18190;SDS011;47004;51.366;12.348;2023-04-28T08:41:26;8.03;;;3.80;;
18190;SDS011;47004;51.366;12.348;2023-04-28T08:43:31;9.77;;;4.27;;
18190;SDS011;47004;51.366;12.348;2023-04-28T08:45:36;8.87;;;4.10;;
18190;SDS011;47004;51.366;12.348;2023-04-28T08:47:41;9.30;;;4.17;;
18190;SDS011;47004;51.366;12.348;2023-04-28T08:49:46;6.97;;;3.97;;
18190;SDS011;47004;51.366;12.348;2023-04-28T08:51:50;8.67;;;3.83;;
18190;SDS011;47004;51.366;12.348;2023-04-28T08:53:57;7.67;;;4.27;;
18190;SDS011;47004;51.366;12.348;2023-04-28T08:56:04;10.33;;;4.67;;
18190;SDS011;47004;51.366;12.348;2023-04-28T08:58:07;6.83;;;4.20;;
18190;SDS011;47004;51.366;12.348;2023-04-28T09:00:10;8.73;;;4.53;;
18190;SDS011;47004;51.366;12.348;2023-04-28T09:02:14;7.17;;;4.10;;
18190;SDS011;47004;51.366;12.348;2023-04-28T09:04:16;9.07;;;3.80;;
18190;SDS011;47004;51.366;12.348;2023-04-28T09:06:20;11.13;;;4.83;;
18190;SDS011;47004;51.366;12.348;2023-04-28T09:08:22;10.13;;;4.40;;
18190;SDS011;47004;51.366;12.348;2023-04-28T09:10:24;7.50;;;4.27;;
18190;SDS011;47004;51.366;12.348;2023-04-28T09:12:34;7.37;;;4.20;;
18190;SDS011;47004;51.366;12.348;2023-04-28T09:14:37;7.73;;;4.07;;
18190;SDS011;47004;51.366;12.348;2023-04-28T09:16:39;10.30;;;3.77;;
18190;SDS011;47004;51.366;12.348;2023-04-28T09:18:45;7.10;;;3.90;;
18190;SDS011;47004;51.366;12.348;2023-04-28T09:21:03;10.60;;;4.00;;
18190;SDS011;47004;51.366;12.348;2023-04-28T09:23:13;9.37;;;4.47;;
18190;SDS011;47004;51.366;12.348;2023-04-28T09:25:16;10.00;;;4.63;;
18190;SDS011;47004;51.366;12.348;2023-04-28T09:27:24;11.20;;;5.20;;
18190;SDS011;47004;51.366;12.348;2023-04-28T09:29:27;9.17;;;4.83;;
18190;SDS011;47004;51.366;12.348;2023-04-28T09:31:30;9.70;;;4.57;;
18190;SDS011;47004;51.366;12.348;2023-04-28T09:33:34;10.07;;;5.40;;
18190;SDS011;47004;51.366;12.348;2023-04-28T09:35:40;9.37;;;5.20;;
18190;SDS011;47004;51.366;12.348;2023-04-28T09:37:44;15.13;;;5.07;;
18190;SDS011;47004;51.366;12.348;2023-04-28T09:39:46;11.97;;;5.33;;
18190;SDS011;47004;51.366;12.348;2023-04-28T09:41:52;10.57;;;5.40;;
18190;SDS011;47004;51.366;12.348;2023-04-28T09:43:54;8.57;;;5.17;;
18190;SDS011;47004;51.366;12.348;2023-04-28T09:46:10;9.77;;;5.57;;
18190;SDS011;47004;51.366;12.348;2023-04-28T09:48:12;13.63;;;5.40;;
18190;SDS011;47004;51.366;12.348;2023-04-28T09:50:14;10.77;;;5.60;;
18190;SDS011;47004;51.366;12.348;2023-04-28T09:52:18;8.10;;;4.70;;
18190;SDS011;47004;51.366;12.348;2023-04-28T09:54:21;13.17;;;5.67;;
18190;SDS011;47004;51.366;12.348;2023-04-28T09:56:24;8.83;;;5.77;;
18190;SDS011;47004;51.366;12.348;2023-04-28T09:58:27;9.37;;;5.80;;
18190;SDS011;47004;51.366;12.348;2023-04-28T10:00:32;10.13;;;5.70;;
18190;SDS011;47004;51.366;12.348;2023-04-28T10:02:35;8.77;;;5.30;;
18190;SDS011;47004;51.366;12.348;2023-04-28T10:04:38;13.23;;;6.53;;
18190;SDS011;47004;51.366;12.348;2023-04-28T10:06:40;9.90;;;6.10;;
18190;SDS011;47004;51.366;12.348;2023-04-28T10:08:46;12.30;;;6.10;;
18190;SDS011;47004;51.366;12.348;2023-04-28T10:10:51;12.43;;;5.80;;
18190;SDS011;47004;51.366;12.348;2023-04-28T10:12:53;13.77;;;6.53;;
18190;SDS011;47004;51.366;12.348;2023-04-28T10:14:56;9.00;;;5.23;;
18190;SDS011;47004;51.366;12.348;2023-04-28T10:17:00;14.70;;;6.50;;
18190;SDS011;47004;51.366;12.348;2023-04-28T10:19:03;11.23;;;5.90;;
18190;SDS011;47004;51.366;12.348;2023-04-28T10:21:05;8.67;;;5.53;;
18190;SDS011;47004;51.366;12.348;2023-04-28T10:23:16;11.03;;;6.10;;
18190;SDS011;47004;51.366;12.348;2023-04-28T10:25:40;12.37;;;5.70;;
18190;SDS011;47004;51.366;12.348;2023-04-28T10:27:43;10.80;;;5.53;;
18190;SDS011;47004;51.366;12.348;2023-04-28T10:29:47;11.13;;;6.23;;
18190;SDS011;47004;51.366;12.348;2023-04-28T10:34:20;12.80;;;6.10;;
18190;SDS011;47004;51.366;12.348;2023-04-28T10:43:36;11.23;;;6.17;;
18190;SDS011;47004;51.366;12.348;2023-04-28T10:46:00;11.43;;;6.00;;
18190;SDS011;47004;51.366;12.348;2023-04-28T10:48:07;11.37;;;6.13;;
18190;SDS011;47004;51.366;12.348;2023-04-28T10:50:09;11.37;;;6.23;;
18190;SDS011;47004;51.366;12.348;2023-04-28T10:57:19;7.60;;;5.47;;
18190;SDS011;47004;51.366;12.348;2023-04-28T10:59:25;8.87;;;6.10;;
18190;SDS011;47004;51.366;12.348;2023-04-28T11:01:28;11.67;;;6.80;;
18190;SDS011;47004;51.366;12.348;2023-04-28T11:03:38;10.97;;;6.30;;
18190;SDS011;47004;51.366;12.348;2023-04-28T11:13:25;8.93;;;5.67;;
18190;SDS011;47004;51.366;12.348;2023-04-28T11:15:30;12.57;;;6.80;;
18190;SDS011;47004;51.366;12.348;2023-04-28T11:17:38;14.23;;;7.43;;
18190;SDS011;47004;51.366;12.348;2023-04-28T11:19:42;9.53;;;5.90;;
18190;SDS011;47004;51.366;12.348;2023-04-28T11:21:45;11.40;;;6.23;;
18190;SDS011;47004;51.366;12.348;2023-04-28T11:23:47;8.57;;;6.07;;
18190;SDS011;47004;51.366;12.348;2023-04-28T11:25:53;11.17;;;5.87;;
18190;SDS011;47004;51.366;12.348;2023-04-28T11:27:55;9.00;;;5.77;;
18190;SDS011;47004;51.366;12.348;2023-04-28T11:30:19;9.70;;;6.40;;
18190;SDS011;47004;51.366;12.348;2023-04-28T11:32:25;10.10;;;6.20;;
18190;SDS011;47004;51.366;12.348;2023-04-28T11:34:28;8.73;;;5.23;;
18190;SDS011;47004;51.366;12.348;2023-04-28T11:36:31;11.90;;;6.60;;
18190;SDS011;47004;51.366;12.348;2023-04-28T11:38:42;10.57;;;6.43;;
18190;SDS011;47004;51.366;12.348;2023-04-28T11:40:54;11.10;;;6.03;;
18190;SDS011;47004;51.366;12.348;2023-04-28T11:42:57;12.00;;;6.00;;
18190;SDS011;47004;51.366;12.348;2023-04-28T11:45:00;12.33;;;5.80;;
18190;SDS011;47004;51.366;12.348;2023-04-28T11:47:04;10.13;;;5.27;;
18190;SDS011;47004;51.366;12.348;2023-04-28T11:49:06;10.00;;;5.50;;
18190;SDS011;47004;51.366;12.348;2023-04-28T11:51:08;9.30;;;5.57;;
18190;SDS011;47004;51.366;12.348;2023-04-28T11:53:10;10.97;;;5.50;;
18190;SDS011;47004;51.366;12.348;2023-04-28T11:55:15;9.30;;;5.43;;
18190;SDS011;47004;51.366;12.348;2023-04-28T11:57:17;7.43;;;5.20;;
18190;SDS011;47004;51.366;12.348;2023-04-28T11:59:22;10.50;;;5.33;;
18190;SDS011;47004;51.366;12.348;2023-04-28T12:01:25;8.50;;;5.20;;
18190;SDS011;47004;51.366;12.348;2023-04-28T12:03:31;10.40;;;5.60;;
18190;SDS011;47004;51.366;12.348;2023-04-28T12:05:33;11.40;;;5.67;;
18190;SDS011;47004;51.366;12.348;2023-04-28T12:07:39;8.30;;;5.17;;
18190;SDS011;47004;51.366;12.348;2023-04-28T12:09:43;6.83;;;4.70;;
18190;SDS011;47004;51.366;12.348;2023-04-28T12:11:53;10.10;;;5.03;;
18190;SDS011;47004;51.366;12.348;2023-04-28T12:14:06;10.67;;;4.33;;
18190;SDS011;47004;51.366;12.348;2023-04-28T12:16:10;8.97;;;5.20;;
18190;SDS011;47004;51.366;12.348;2023-04-28T12:18:13;9.97;;;5.47;;
18190;SDS011;47004;51.366;12.348;2023-04-28T12:20:35;11.60;;;5.30;;
18190;SDS011;47004;51.366;12.348;2023-04-28T12:22:43;7.37;;;4.87;;
18190;SDS011;47004;51.366;12.348;2023-04-28T12:24:46;8.37;;;5.00;;
18190;SDS011;47004;51.366;12.348;2023-04-28T12:27:13;9.00;;;5.30;;
18190;SDS011;47004;51.366;12.348;2023-04-28T12:29:36;9.40;;;5.33;;